Airport View

Enter AWOS ICAO identifier for current METAR.

ex. KFNL

KSWF 192045Z VRB05KT 20SM FEW120 16/04 A3001

19 Oct 2019 21:52

Other Area AWOS: KMGJ - KPOU - KDXR - KFWN

TAF AMD KSWF 191940Z 1920/2024 VRB05KT P6SM FEW250 FM200000 VRB02KT P6SM BKN250 FM201500 VRB04KT P6SM FEW030 BKN150 PROB30 2018/2021 6SM -RA BKN020 OVC050 FM202100 07012KT 5SM -RA OVC015 AMD NOT SKED